»·PEaware :: N800DW KMFR-KPDX

N800DW :: KMFR-KPDX

FLIGHT INFORMATION

Flight Status: Arrived
Operator: Privately registered:
United States
More flights under this callsign
Pilot: Scott L. (17677)
Aircraft: PIPER PA-30 TWIN COMANCHE
(PA30)
More flights by this aircraft type
Origin: KMFR Rogue Valley Intl-Medford
United States
Destination: KPDX Portland Intl
United States
More flights between these airports :: More routes between these airports
Route: JKSN1 OED MOXEE OCITY1
File this flight plan on PilotEdge
Remarks:
Altitude:
(Current/Filed)
11,000ft
Speed:
(Current/Filed)
150kts
Departed: 01-Aug-18 08:36 AM
Arrived: 01-Aug-18 11:44 AM
Distance/Time
Traveled:
193nm/3:08
Distance/Time
To Go:
Arrived

Flight Plot

Page will automatically refresh every two minutes.

Flight plan parsing failed; only flown route is shown


Map Options




Map Legend


Flown Route
Filed Route
Departure Airport
Arrival Airport
Navaid (VOR, NDB)
Fix

Horizontal Profiles

Position Reports

Time Latitude Longitude Heading Altitude Ground
Speed
01-Aug-18 07:57 42.371434 -122.876555 288 1317ft 0kts
01-Aug-18 07:58 42.371434 -122.876555 288 1317ft 0kts
01-Aug-18 07:59 42.371434 -122.876555 288 1317ft 0kts
01-Aug-18 08:00 42.371434 -122.876555 288 1317ft 0kts
01-Aug-18 08:01 42.371434 -122.876555 288 1317ft 0kts
01-Aug-18 08:02 42.371434 -122.876555 288 1317ft 0kts
01-Aug-18 08:03 42.371434 -122.876555 288 1317ft 0kts
01-Aug-18 08:04 42.371434 -122.876555 288 1317ft 0kts
01-Aug-18 08:05 42.371434 -122.876555 288 1317ft 0kts
01-Aug-18 08:06 42.371434 -122.876555 288 1317ft 0kts
01-Aug-18 08:07 42.371434 -122.876555 288 1317ft 0kts
01-Aug-18 08:08 42.371434 -122.876555 288 1317ft 0kts
01-Aug-18 08:09 42.371434 -122.876555 288 1317ft 0kts
01-Aug-18 08:10 42.371434 -122.876555 288 1317ft 0kts
01-Aug-18 08:11 42.371434 -122.876555 288 1317ft 0kts
01-Aug-18 08:12 42.371434 -122.876555 288 1317ft 0kts
01-Aug-18 08:13 42.371434 -122.876555 288 1317ft 0kts
01-Aug-18 08:14 42.371434 -122.876555 288 1317ft 0kts
01-Aug-18 08:15 42.371434 -122.876555 288 1317ft 0kts
01-Aug-18 08:16 42.371434 -122.876555 288 1317ft 0kts
01-Aug-18 08:17 42.371434 -122.876555 288 1317ft 0kts
01-Aug-18 08:18 42.371434 -122.876555 288 1317ft 0kts
01-Aug-18 08:19 42.371434 -122.876555 288 1317ft 0kts
01-Aug-18 08:20 42.371434 -122.876555 288 1317ft 0kts
01-Aug-18 08:21 42.368083 -122.872388 203 1317ft 0kts
01-Aug-18 08:22 42.371150 -122.876025 112 1317ft 0kts
01-Aug-18 08:23 42.371150 -122.876025 112 1317ft 0kts
01-Aug-18 08:24 42.371150 -122.876025 112 1317ft 0kts
01-Aug-18 08:25 42.371150 -122.876025 112 1317ft 0kts
01-Aug-18 08:26 42.371150 -122.876025 112 1317ft 0kts
01-Aug-18 08:27 42.371150 -122.876025 112 1317ft 0kts
01-Aug-18 08:28 42.371150 -122.876025 112 1317ft 0kts
01-Aug-18 08:29 42.371631 -122.875500 33 1317ft 9kts
01-Aug-18 08:30 42.373161 -122.877348 147 1317ft 0kts
01-Aug-18 08:31 42.372938 -122.876553 110 1317ft 10kts
01-Aug-18 08:32 42.373488 -122.875263 0 1317ft 7kts
01-Aug-18 08:33 42.378071 -122.876492 339 1317ft 23kts
01-Aug-18 08:34 42.384942 -122.880113 337 1317ft 28kts
01-Aug-18 08:35 42.385812 -122.880183 57 1317ft 0kts
01-Aug-18 08:36 42.385812 -122.880183 57 1317ft 0kts
01-Aug-18 08:37 42.383374 -122.877706 157 1317ft 73kts
01-Aug-18 08:38 42.355513 -122.867488 207 2274ft 117kts
01-Aug-18 08:39 42.363954 -122.896428 335 3495ft 109kts
01-Aug-18 08:40 42.390984 -122.912184 336 4665ft 107kts
01-Aug-18 08:41 42.405288 -122.920173 336 5263ft 106kts
01-Aug-18 08:42 42.433511 -122.926576 8 6348ft 109kts
01-Aug-18 08:43 42.462819 -122.916435 9 7363ft 110kts
01-Aug-18 08:44 42.492428 -122.905469 8 8320ft 112kts
01-Aug-18 08:45 42.522654 -122.893859 9 9227ft 114kts
01-Aug-18 08:46 42.553619 -122.886974 356 10087ft 114kts
01-Aug-18 08:47 42.585712 -122.883858 356 10912ft 117kts
01-Aug-18 08:48 42.625065 -122.880639 358 10994ft 163kts
01-Aug-18 08:49 42.671881 -122.876712 358 10989ft 173kts
01-Aug-18 08:50 42.720166 -122.872588 358 10988ft 175kts
01-Aug-18 08:51 42.768767 -122.868464 358 10988ft 175kts
01-Aug-18 08:52 42.817225 -122.864475 358 10988ft 175kts
01-Aug-18 08:53 42.865344 -122.860532 358 10988ft 171kts
01-Aug-18 08:54 42.912527 -122.856666 358 10966ft 170kts
01-Aug-18 08:55 42.959580 -122.852789 358 10960ft 168kts
01-Aug-18 08:56 43.006072 -122.848956 357 10964ft 167kts
01-Aug-18 08:57 43.052085 -122.845157 357 10968ft 166kts
01-Aug-18 08:58 43.098040 -122.841360 357 10968ft 165kts
01-Aug-18 08:59 43.143746 -122.837577 357 10968ft 165kts
01-Aug-18 09:00 43.189545 -122.833780 357 10969ft 165kts
01-Aug-18 09:01 43.235404 -122.829973 357 10969ft 165kts
01-Aug-18 09:02 43.281346 -122.826152 357 10969ft 165kts
01-Aug-18 09:03 43.327149 -122.822338 357 10969ft 165kts
01-Aug-18 09:04 43.372953 -122.818517 357 10969ft 165kts
01-Aug-18 09:05 43.418928 -122.814676 357 10969ft 165kts
01-Aug-18 09:06 43.464744 -122.810843 357 10969ft 165kts
01-Aug-18 09:07 43.510610 -122.807000 357 10970ft 165kts
01-Aug-18 09:08 43.556492 -122.803151 357 10973ft 165kts
01-Aug-18 09:09 43.602336 -122.799298 357 10978ft 165kts
01-Aug-18 09:10 43.648194 -122.795437 358 10984ft 165kts
01-Aug-18 09:11 43.694019 -122.791572 358 10988ft 165kts
01-Aug-18 09:12 43.740093 -122.787681 358 10988ft 166kts
01-Aug-18 09:13 43.785946 -122.783802 358 10988ft 166kts
01-Aug-18 09:14 43.831911 -122.779909 358 10988ft 166kts
01-Aug-18 09:15 43.877340 -122.776056 358 10988ft 166kts
01-Aug-18 09:16 43.923289 -122.772152 358 10988ft 166kts
01-Aug-18 09:17 43.969338 -122.768234 358 10989ft 166kts
01-Aug-18 09:42 42.371150 -122.876024 112 1317ft 0kts
01-Aug-18 09:43 42.371150 -122.876024 112 1317ft 0kts
01-Aug-18 09:44 42.371150 -122.876025 112 1317ft 0kts
01-Aug-18 09:45 42.371150 -122.876025 112 1317ft 0kts
01-Aug-18 09:46 42.371150 -122.876025 112 1317ft 0kts
01-Aug-18 09:47 42.371150 -122.876025 112 1317ft 0kts
01-Aug-18 09:48 42.371150 -122.876025 112 1317ft 0kts
01-Aug-18 09:49 42.371150 -122.876025 112 1317ft 0kts
01-Aug-18 09:50 42.371150 -122.876025 112 1317ft 0kts
01-Aug-18 09:51 42.371150 -122.876025 112 1317ft 0kts
01-Aug-18 09:52 42.371150 -122.876025 112 1317ft 0kts
01-Aug-18 09:53 42.371150 -122.876025 112 1317ft 0kts
01-Aug-18 09:54 42.371150 -122.876025 112 1317ft 0kts
01-Aug-18 09:55 42.371150 -122.876025 112 1317ft 0kts
01-Aug-18 09:56 42.371150 -122.876025 112 1317ft 0kts
01-Aug-18 09:57 42.371150 -122.876025 112 1317ft 0kts
01-Aug-18 09:58 42.371150 -122.876025 112 1317ft 0kts
01-Aug-18 09:59 42.371150 -122.876025 112 1317ft 0kts
01-Aug-18 10:00 42.371150 -122.876025 112 1317ft 0kts
01-Aug-18 10:01 42.371150 -122.876025 112 1317ft 0kts
01-Aug-18 10:02 42.371150 -122.876025 112 1317ft 0kts
01-Aug-18 10:03 42.371150 -122.876025 112 1317ft 0kts
01-Aug-18 10:04 42.371150 -122.876025 112 1317ft 0kts
01-Aug-18 10:05 42.371150 -122.876025 112 1317ft 0kts
01-Aug-18 10:06 42.371150 -122.876025 112 1317ft 0kts
01-Aug-18 10:07 42.371150 -122.876025 112 1317ft 0kts
01-Aug-18 10:08 42.371150 -122.876025 112 1317ft 0kts
01-Aug-18 10:09 42.371150 -122.876025 112 1317ft 0kts
01-Aug-18 10:10 42.371150 -122.876025 112 1317ft 0kts
01-Aug-18 10:11 42.371150 -122.876025 112 1317ft 0kts
01-Aug-18 10:12 42.371150 -122.876025 112 1317ft 0kts
01-Aug-18 10:13 42.371150 -122.876025 112 1317ft 0kts
01-Aug-18 10:14 42.371144 -122.876008 112 1317ft 0kts
01-Aug-18 10:15 42.372288 -122.874414 108 1317ft 11kts
01-Aug-18 10:16 42.376601 -122.875727 339 1317ft 23kts
01-Aug-18 10:17 42.383210 -122.879191 336 1317ft 26kts
01-Aug-18 10:18 42.381235 -122.876521 159 1318ft 91kts
01-Aug-18 10:19 42.349883 -122.868704 218 2150ft 129kts
01-Aug-18 10:20 42.362286 -122.901082 336 3252ft 119kts
01-Aug-18 10:21 42.391837 -122.919536 336 4334ft 116kts
01-Aug-18 10:22 42.422657 -122.926754 4 5359ft 114kts
01-Aug-18 10:23 42.453345 -122.917357 2 6319ft 113kts
01-Aug-18 10:24 42.484686 -122.913830 359 7238ft 114kts
01-Aug-18 10:25 42.516386 -122.910715 357 8112ft 115kts
01-Aug-18 10:26 42.548487 -122.907650 357 8938ft 117kts
01-Aug-18 10:27 42.581337 -122.904587 356 9727ft 120kts
01-Aug-18 10:28 42.615035 -122.901452 356 10477ft 123kts
01-Aug-18 10:29 42.650444 -122.898215 357 10974ft 146kts
01-Aug-18 10:30 42.695385 -122.893993 358 10961ft 171kts
01-Aug-18 10:31 42.743634 -122.889367 358 10959ft 175kts
01-Aug-18 10:32 42.792405 -122.884733 358 10942ft 177kts
01-Aug-18 10:33 42.841290 -122.880074 358 10941ft 176kts
01-Aug-18 10:34 42.890006 -122.875436 358 10941ft 176kts
01-Aug-18 10:35 42.938710 -122.870791 359 10947ft 175kts
01-Aug-18 10:36 42.987250 -122.866151 359 10969ft 174kts
01-Aug-18 10:37 43.035419 -122.861542 359 10984ft 174kts
01-Aug-18 10:38 43.083769 -122.856902 359 10985ft 174kts
01-Aug-18 10:39 43.131489 -122.852320 359 10984ft 174kts
01-Aug-18 10:40 43.179737 -122.847682 359 10985ft 174kts
01-Aug-18 10:41 43.227887 -122.843045 359 10985ft 174kts
01-Aug-18 10:42 43.276274 -122.838378 359 10985ft 174kts
01-Aug-18 10:43 43.324373 -122.833732 359 10986ft 174kts
01-Aug-18 10:44 43.372661 -122.829060 359 10986ft 174kts
01-Aug-18 10:45 43.420868 -122.824388 359 10986ft 174kts
01-Aug-18 10:46 43.469144 -122.819702 359 10986ft 174kts
01-Aug-18 10:47 43.517485 -122.815002 359 10986ft 174kts
01-Aug-18 10:48 43.565699 -122.810307 359 10990ft 174kts
01-Aug-18 10:49 43.613910 -122.805604 359 10996ft 174kts
01-Aug-18 10:50 43.662262 -122.800880 359 11002ft 174kts
01-Aug-18 10:51 43.710610 -122.796148 359 11005ft 174kts
01-Aug-18 10:52 43.758967 -122.791409 359 11005ft 174kts
01-Aug-18 10:53 43.807364 -122.786658 359 11005ft 174kts
01-Aug-18 10:54 43.855724 -122.781903 359 11005ft 174kts
01-Aug-18 10:55 43.904072 -122.777141 359 11005ft 174kts
01-Aug-18 10:56 43.952435 -122.772370 359 11005ft 175kts
01-Aug-18 10:57 44.000916 -122.767580 359 11005ft 175kts
01-Aug-18 10:58 44.049283 -122.762793 359 11005ft 175kts
01-Aug-18 10:59 44.097697 -122.757993 359 11005ft 175kts
01-Aug-18 11:00 44.143312 -122.753465 359 11004ft 174kts
01-Aug-18 11:01 44.191598 -122.748720 359 11004ft 174kts
01-Aug-18 11:02 44.239962 -122.743968 359 11004ft 174kts
01-Aug-18 11:03 44.288183 -122.739221 359 11004ft 174kts
01-Aug-18 11:04 44.336585 -122.734449 359 11004ft 174kts
01-Aug-18 11:05 44.384953 -122.729673 359 11002ft 175kts
01-Aug-18 11:06 44.433542 -122.724867 359 11000ft 175kts
01-Aug-18 11:07 44.482284 -122.720038 359 10998ft 176kts
01-Aug-18 11:08 44.530997 -122.715203 359 10997ft 176kts
01-Aug-18 11:09 44.579849 -122.710346 359 10997ft 176kts
01-Aug-18 11:10 44.628617 -122.705470 359 10996ft 176kts
01-Aug-18 11:11 44.677724 -122.700549 359 10996ft 176kts
01-Aug-18 11:12 44.726560 -122.695647 359 10996ft 177kts
01-Aug-18 11:13 44.775397 -122.690737 359 10996ft 177kts
01-Aug-18 11:14 44.824448 -122.685796 359 10998ft 176kts
01-Aug-18 11:15 44.873180 -122.680878 359 11002ft 176kts
01-Aug-18 11:16 44.922047 -122.675939 359 11007ft 176kts
01-Aug-18 11:17 44.970662 -122.671018 359 11012ft 175kts
01-Aug-18 11:18 45.018941 -122.666121 359 11013ft 173kts
01-Aug-18 11:19 45.066360 -122.661306 0 11013ft 170kts
01-Aug-18 11:20 45.112288 -122.656692 0 11013ft 167kts
01-Aug-18 11:21 45.158388 -122.652095 0 11014ft 166kts
01-Aug-18 11:22 45.204778 -122.626394 24 10321ft 190kts
01-Aug-18 11:23 45.251946 -122.592363 24 9689ft 190kts
01-Aug-18 11:24 45.299243 -122.558499 24 9070ft 190kts
01-Aug-18 11:25 45.346106 -122.525190 24 8464ft 189kts
01-Aug-18 11:26 45.394865 -122.491018 24 7298ft 201kts
01-Aug-18 11:27 45.445194 -122.456413 24 6080ft 201kts
01-Aug-18 11:28 45.495315 -122.422522 24 4883ft 200kts
01-Aug-18 11:29 45.544704 -122.434253 325 3653ft 198kts
01-Aug-18 11:30 45.569033 -122.496834 273 2455ft 199kts
01-Aug-18 11:31 45.541994 -122.550731 208 2137ft 174kts
01-Aug-18 11:32 45.504416 -122.576194 172 3043ft 137kts
01-Aug-18 11:33 45.479429 -122.527245 116 2987ft 167kts
01-Aug-18 11:34 45.457716 -122.467793 116 2986ft 169kts
01-Aug-18 11:35 45.435933 -122.408131 116 2986ft 170kts
01-Aug-18 11:36 45.414175 -122.348288 113 2983ft 170kts
01-Aug-18 11:37 45.443585 -122.308431 359 2972ft 168kts
01-Aug-18 11:38 45.484073 -122.340983 324 2985ft 168kts
01-Aug-18 11:39 45.513221 -122.389421 302 2764ft 189kts
01-Aug-18 11:40 45.531132 -122.432660 299 2068ft 127kts
01-Aug-18 11:41 45.546598 -122.469101 300 1291ft 95kts
01-Aug-18 11:42 45.556452 -122.496019 299 801ft 90kts
01-Aug-18 11:43 45.569559 -122.530856 300 415ft 82kts
01-Aug-18 11:44 45.580262 -122.558291 298 218ft 79kts
01-Aug-18 11:45 45.588307 -122.579029 300 32ft 17kts
01-Aug-18 11:46 45.588654 -122.582146 211 31ft 0kts
01-Aug-18 11:47 45.588654 -122.582146 211 31ft 0kts
01-Aug-18 11:48 45.588654 -122.582146 211 31ft 0kts
01-Aug-18 11:49 45.587115 -122.582600 209 32ft 0kts
01-Aug-18 11:50 45.587115 -122.582600 209 32ft 0kts
01-Aug-18 11:51 45.587115 -122.582600 209 32ft 0kts
01-Aug-18 11:52 45.587115 -122.582600 209 32ft 0kts
01-Aug-18 11:53 45.587115 -122.582600 209 32ft 0kts
01-Aug-18 11:54 45.587115 -122.582600 209 32ft 0kts
01-Aug-18 11:55 45.587115 -122.582600 209 32ft 0kts
01-Aug-18 11:56 45.587115 -122.582600 209 32ft 0kts
01-Aug-18 11:57 45.587115 -122.582600 209 32ft 0kts
01-Aug-18 11:58 45.587115 -122.582600 209 32ft 0kts
01-Aug-18 11:59 45.587115 -122.582600 209 32ft 0kts

Navigation Log

Ident Type
Flight plan parsing failed, navigation log unavailable